KBUR/BUR METAR and TAF weather

Enter ICAO airport designator
Station Type Date Time Source
KBUR METAR 2022/11/30 17:53 UTC NOAA

KBUR 301753Z 15004KT 10SM FEW023 BKN030 13/08 A3005 RMK AO2 SLP170 T01280078 10128 20089 53008


Station Type Date Time Source
KBUR Decoded METAR 2022/11/30 17:53 UTC NOAA

BURBANK-GLENDALE-PASADENA, CA, United States (KBUR) 34-12N 118-22W 217M
Nov 30, 2022 - 12:53 PM EST / 2022.11.30 1753 UTC
Wind: from the SSE (150 degrees) at 5 MPH (4 KT):0
Visibility: 10 mile(s):0
Sky conditions: mostly cloudy
Temperature: 55.0 F (12.8 C)
Dew Point: 46.0 F (7.8 C)
Relative Humidity: 71%
Pressure (altimeter): 30.05 in. Hg (1017 hPa)
Pressure tendency: 0.02 inches (0.8 hPa) higher than three hours ago
ob: KBUR 301753Z 15004KT 10SM FEW023 BKN030 13/08 A3005 RMK AO2 SLP170 T01280078 10128 20089 53008
cycle: 18

Station Type Date Time Source
KBUR TAF 2022/11/30 18:51 UTC NOAA

TAF KBUR 301749Z 3018/0118 00000KT P6SM FEW023 BKN030
FM302000 17008KT P6SM BKN017 OVC035
FM010900 16005KT P6SM BKN012 OVC025
FM011400 14005KT P6SM VCSH BKN012 OVC025

Example: see airport list